Ames, South Dakota
Current Conditions -  °F | °C
As of 8:53 PM on Friday 19 Dec 2014 (Local Time) from KPIR Reporting Station
Haze Haze  
Wind Chill: 21°   Ceiling: Unl
Heat Index: 21°   Visibility: 6mi
Dew Point: 20°   Wind: 0mph
Humidity: 96%   Direction: NA
Pressure: 29.96"   Gusts: NA
Location:  44.3693°N, 100.04°W
Report Text: KPIR 200253Z AUTO 00000KT 6SM BR CLR M06/M07 A2996 RMK AO2 SLP172 I1001 I3001 T10611067 58004
Loading
Personal Weather Stations






























Interactive Weather Map New forecast layout! Learn more

10-Day Weather Forecast

Advertisements
Track Severe Weather on mobile